Time;durP1;ratioP1;P1;durP2;ratioP2;P2;SDS_P1;SDS_P2;PMS_P1;PMS_P2;Temp;Humidity;BMP_temperature;BMP_pressure;BME280_temperature;BME280_humidity;BME280_pressure;Samples;Min_cycle;Max_cycle;Signal;HPM_P1;HPM_P2
2021/12/26 00:04:13;;;;;;;52.60;22.40;;;;;;;-3.89;60.92;98874.73;218747;1296;139445;-57
2021/12/26 00:09:17;;;;;;;57.90;23.40;;;;;;;-3.92;60.86;98874.41;218396;1293;140671;-59
2021/12/26 00:14:20;;;;;;;54.50;23.50;;;;;;;-3.96;60.77;98881.02;218376;1294;139554;-61
2021/12/26 00:19:23;;;;;;;59.80;23.70;;;;;;;-3.97;60.93;98877.91;219060;1293;139345;-58
2021/12/26 00:24:26;;;;;;;67.20;27.00;;;;;;;-4.06;60.64;98872.42;218746;1293;139335;-58
2021/12/26 00:29:29;;;;;;;71.20;27.20;;;;;;;-4.15;60.67;98876.98;218678;1294;139413;-59
2021/12/26 00:34:34;;;;;;;69.10;28.70;;;;;;;-4.17;60.89;98875.61;218967;1294;139160;-58
2021/12/26 00:39:37;;;;;;;64.00;29.10;;;;;;;-4.19;60.80;98881.85;218425;1294;139464;-59
2021/12/26 00:44:42;;;;;;;64.40;30.00;;;;;;;-4.26;60.93;98877.91;219341;1293;139234;-60
2021/12/26 00:49:46;;;;;;;75.60;30.10;;;;;;;-4.26;60.82;98874.45;218814;1293;138972;-61
2021/12/26 00:54:49;;;;;;;71.30;30.60;;;;;;;-4.29;60.79;98877.57;219000;1293;139676;-61
2021/12/26 00:59:52;;;;;;;71.80;31.70;;;;;;;-4.34;60.88;98879.85;218974;1293;139627;-62
2021/12/26 01:04:55;;;;;;;70.90;29.90;;;;;;;-4.38;60.89;98879.70;218443;1294;139714;-60
2021/12/26 01:09:58;;;;;;;73.80;29.90;;;;;;;-4.46;60.83;98881.98;218660;1293;138968;-60
2021/12/26 01:15:07;;;;;;;68.30;30.80;;;;;;;-4.53;60.92;98891.19;219256;1293;140012;-62
2021/12/26 01:20:37;;;;;;;75.90;32.70;;;;;;;-4.61;60.76;98886.02;218892;1293;140556;-59
2021/12/26 01:25:41;;;;;;;80.20;34.10;;;;;;;-4.68;60.97;98881.38;218877;1293;141775;-58
2021/12/26 01:30:45;;;;;;;79.10;32.80;;;;;;;-4.73;60.91;98877.24;218345;1294;139466;-58
2021/12/26 01:35:48;;;;;;;72.00;32.50;;;;;;;-4.79;60.96;98872.77;218335;1296;140493;-59
2021/12/26 01:41:30;;;;;;;80.00;33.30;;;;;;;-4.85;61.02;98870.02;217636;1299;139895;-61
2021/12/26 01:46:49;;;;;;;71.30;31.60;;;;;;;-4.88;60.98;98868.98;218207;1296;141374;-58
2021/12/26 01:52:05;;;;;;;75.70;32.40;;;;;;;-4.91;61.02;98865.88;218906;1294;141350;-57
2021/12/26 01:57:11;;;;;;;77.00;33.90;;;;;;;-4.96;60.98;98865.20;218583;1294;139063;-57
2021/12/26 02:02:15;;;;;;;72.70;32.50;;;;;;;-5.03;60.88;98866.43;219302;1292;139862;-59
2021/12/26 02:07:19;;;;;;;85.40;34.20;;;;;;;-5.07;60.95;98864.20;219718;1292;139901;-61
2021/12/26 02:12:23;;;;;;;74.30;32.00;;;;;;;-5.12;60.83;98862.98;218547;1294;139338;-59
2021/12/26 02:17:28;;;;;;;76.70;32.20;;;;;;;-5.18;61.02;98866.64;218491;1294;139594;-58
2021/12/26 02:22:32;;;;;;;77.30;32.80;;;;;;;-5.21;61.11;98877.20;218603;1294;139386;-59
2021/12/26 02:27:42;;;;;;;74.30;31.70;;;;;;;-5.20;61.09;98877.70;218445;1296;141233;-58
2021/12/26 02:32:48;;;;;;;79.40;32.90;;;;;;;-5.23;61.12;98877.20;218843;1294;140008;-58
2021/12/26 02:37:51;;;;;;;76.70;32.10;;;;;;;-5.24;61.02;98878.42;219049;1294;139093;-58
2021/12/26 02:42:54;;;;;;;81.30;32.10;;;;;;;-5.29;60.92;98873.40;218781;1294;139137;-59
2021/12/26 02:47:58;;;;;;;80.70;33.40;;;;;;;-5.34;60.88;98872.02;218525;1294;140555;-57
2021/12/26 02:53:03;;;;;;;83.30;33.60;;;;;;;-5.40;60.82;98864.42;218749;1296;139026;-59
2021/12/26 02:58:09;;;;;;;77.90;32.90;;;;;;;-5.43;61.20;98860.10;219534;1293;140163;-60
2021/12/26 03:03:13;;;;;;;84.30;33.20;;;;;;;-5.41;61.27;98863.38;218814;1294;140596;-58
2021/12/26 03:08:17;;;;;;;77.70;32.80;;;;;;;-5.42;61.23;98870.47;219023;1294;139606;-60
2021/12/26 03:13:21;;;;;;;78.10;33.00;;;;;;;-5.46;61.30;98878.61;219234;1294;139594;-60
2021/12/26 03:18:24;;;;;;;83.50;31.30;;;;;;;-5.44;61.39;98878.77;218962;1294;162503;-59
2021/12/26 03:23:27;;;;;;;76.30;31.20;;;;;;;-5.49;61.11;98881.02;218207;1297;140081;-61
2021/12/26 03:28:31;;;;;;;70.80;29.10;;;;;;;-5.52;60.99;98885.69;218126;1297;139458;-57
2021/12/26 03:33:35;;;;;;;76.70;30.20;;;;;;;-5.53;61.47;98885.52;218391;1293;139586;-59
2021/12/26 03:38:38;;;;;;;72.40;30.30;;;;;;;-5.55;61.25;98887.77;219296;1293;139678;-58
2021/12/26 03:43:46;;;;;;;69.40;29.10;;;;;;;-5.55;61.51;98885.52;218832;1294;139324;-59
2021/12/26 03:48:49;;;;;;;69.40;29.30;;;;;;;-5.52;61.45;98881.71;218558;1294;139509;-57
2021/12/26 03:53:53;;;;;;;72.30;29.20;;;;;;;-5.51;61.65;98879.81;218778;1294;139308;-59
2021/12/26 03:58:55;;;;;;;67.00;28.90;;;;;;;-5.46;61.76;98881.54;218353;1294;140571;-56
2021/12/26 04:03:59;;;;;;;75.80;31.60;;;;;;;-5.38;61.88;98886.21;217994;1296;139714;-58
2021/12/26 04:09:02;;;;;;;73.00;28.80;;;;;;;-5.26;61.83;98899.50;218691;1294;140401;-58
2021/12/26 04:14:06;;;;;;;72.30;29.50;;;;;;;-5.14;61.56;98905.89;219041;1293;140863;-57
2021/12/26 04:19:10;;;;;;;67.40;28.10;;;;;;;-5.16;61.25;98905.70;218738;1295;139502;-58
2021/12/26 04:24:13;;;;;;;66.60;27.00;;;;;;;-5.23;61.04;98908.84;219749;1294;141331;-59
2021/12/26 04:29:16;;;;;;;74.30;27.90;;;;;;;-5.31;60.95;98915.41;218929;1294;140127;-59
2021/12/26 04:34:19;;;;;;;67.40;25.30;;;;;;;-5.39;60.96;98924.06;219565;1293;140580;-57
2021/12/26 04:39:23;;;;;;;58.10;24.30;;;;;;;-5.50;60.78;98926.13;218735;1293;139460;-59
2021/12/26 04:44:27;;;;;;;57.50;24.50;;;;;;;-5.57;60.74;98932.17;218719;1293;140486;-59
2021/12/26 04:49:52;;;;;;;61.90;23.30;;;;;;;-5.62;60.82;98937.35;218325;1294;139996;-58
2021/12/26 04:55:02;;;;;;;52.90;23.60;;;;;;;-5.69;60.92;98936.48;218200;1296;140701;-59
2021/12/26 05:00:07;;;;;;;59.60;23.70;;;;;;;-5.74;60.96;98935.79;218893;1296;139063;-58
2021/12/26 05:05:11;;;;;;;54.70;23.10;;;;;;;-5.80;61.09;98939.41;218544;1294;139668;-58
2021/12/26 05:10:17;;;;;;;53.50;22.50;;;;;;;-5.84;61.13;98945.95;218933;1293;139086;-60
2021/12/26 05:15:21;;;;;;;59.80;23.50;;;;;;;-5.86;61.25;98939.05;219035;1290;139401;-58
2021/12/26 05:20:26;;;;;;;54.40;23.40;;;;;;;-5.87;61.17;98934.91;219238;1293;140132;-59
2021/12/26 05:25:29;;;;;;;57.70;24.60;;;;;;;-5.86;61.23;98933.70;218444;1296;139397;-59
2021/12/26 05:30:32;;;;;;;57.50;24.40;;;;;;;-5.87;61.18;98934.55;218650;1293;140600;-60
2021/12/26 05:35:48;;;;;;;58.40;23.80;;;;;;;-5.91;61.23;98932.66;218498;1296;139759;-57
2021/12/26 05:40:52;;;;;;;63.60;25.20;;;;;;;-5.96;61.11;98930.59;218637;1293;139935;-58
2021/12/26 05:45:55;;;;;;;64.40;24.30;;;;;;;-5.90;61.30;98926.77;218225;1293;139612;-59
2021/12/26 05:50:59;;;;;;;62.90;24.80;;;;;;;-5.81;61.25;98925.94;218370;1294;139831;-59
2021/12/26 05:56:22;;;;;;;64.20;24.80;;;;;;;-5.75;60.97;98929.55;219206;1292;140566;-60
2021/12/26 06:01:29;;;;;;;60.20;25.60;;;;;;;-5.74;61.13;98930.27;218751;1293;139002;-56
2021/12/26 06:06:33;;;;;;;69.00;23.50;;;;;;;-5.73;60.97;98933.70;218189;1296;139000;-57
2021/12/26 06:11:37;;;;;;;52.70;22.50;;;;;;;-5.78;60.85;98939.06;218511;1293;140054;-56
2021/12/26 06:16:41;;;;;;;47.20;20.20;;;;;;;-5.84;60.75;98939.73;218680;1293;139230;-58
2021/12/26 06:21:51;;;;;;;48.70;20.40;;;;;;;-5.89;60.80;98940.94;218325;1294;139543;-59
2021/12/26 06:27:10;;;;;;;50.60;20.30;;;;;;;-5.96;60.77;98942.86;218862;1293;139394;-57
2021/12/26 06:32:32;;;;;;;47.90;18.70;;;;;;;-6.01;60.76;98948.02;218714;1293;139627;-59
2021/12/26 06:38:07;;;;;;;47.00;19.10;;;;;;;-6.03;61.11;98946.81;218048;1302;139849;-58
2021/12/26 06:43:38;;;;;;;48.10;19.50;;;;;;;-6.04;61.15;98952.34;219121;1293;139089;-57
2021/12/26 06:49:17;;;;;;;48.40;19.30;;;;;;;-6.09;60.89;98961.98;218530;1293;139674;-57
2021/12/26 06:54:20;;;;;;;49.60;20.60;;;;;;;-6.13;61.24;98965.09;219326;1293;139807;-57
2021/12/26 06:59:24;;;;;;;54.40;20.60;;;;;;;-6.14;60.89;98963.70;219136;1293;140058;-58
2021/12/26 07:04:28;;;;;;;52.20;20.30;;;;;;;-6.16;61.08;98961.45;218393;1294;139706;-59
2021/12/26 07:09:31;;;;;;;50.40;21.10;;;;;;;-6.11;60.82;98966.81;218690;1293;140009;-60
2021/12/26 07:14:34;;;;;;;66.40;25.70;;;;;;;-5.89;61.84;98972.39;218212;1296;140204;-60
2021/12/26 07:19:38;;;;;;;47.40;20.60;;;;;;;-5.58;61.72;98977.27;218682;1293;140361;-59
2021/12/26 07:24:48;;;;;;;40.50;18.80;;;;;;;-5.57;60.88;98987.30;219037;1293;138748;-60
2021/12/26 07:29:52;;;;;;;75.00;29.70;;;;;;;-5.60;61.44;98991.27;219000;1294;138819;-61
2021/12/26 07:34:55;;;;;;;47.30;20.00;;;;;;;-4.84;63.07;98990.60;218292;1289;214033;-61
2021/12/26 07:39:59;;;;;;;45.60;20.10;;;;;;;-4.99;60.85;98999.45;218453;1294;139319;-59
2021/12/26 07:45:03;;;;;;;46.10;20.70;;;;;;;-5.06;61.44;99009.46;219572;1293;139495;-60
2021/12/26 07:50:20;;;;;;;45.20;20.40;;;;;;;-4.95;61.04;99008.60;218847;1294;139439;-56
2021/12/26 07:55:42;;;;;;;52.40;22.20;;;;;;;-5.14;60.48;99012.77;218613;1292;139378;-56
2021/12/26 08:01:04;;;;;;;51.40;21.50;;;;;;;-5.34;60.48;99009.29;219754;1292;140288;-59
2021/12/26 08:06:19;;;;;;;56.20;23.70;;;;;;;-5.25;61.86;99012.23;218814;1294;139426;-58
2021/12/26 08:11:26;;;;;;;53.30;23.30;;;;;;;-5.17;61.21;99021.05;218797;1294;139000;-64
2021/12/26 08:16:30;;;;;;;48.20;22.20;;;;;;;-5.17;61.02;99021.40;218478;1294;139887;-59
2021/12/26 08:21:34;;;;;;;53.40;24.30;;;;;;;-5.17;61.17;99021.05;218281;1296;139173;-58
2021/12/26 08:26:37;;;;;;;54.70;25.50;;;;;;;-5.22;60.89;99021.23;218402;1296;139281;-62
2021/12/26 08:31:40;;;;;;;56.80;24.10;;;;;;;-5.27;61.10;99018.98;219017;1293;139184;-59
2021/12/26 08:36:43;;;;;;;59.40;26.00;;;;;;;-5.29;61.05;99023.12;218860;1294;140179;-58
2021/12/26 08:41:46;;;;;;;58.30;26.40;;;;;;;-5.26;61.41;99021.40;218777;1293;138684;-59
2021/12/26 08:46:49;;;;;;;66.70;26.60;;;;;;;-5.16;61.56;99027.30;218926;1291;140628;-60
2021/12/26 08:51:53;;;;;;;63.10;26.40;;;;;;;-5.04;61.72;99035.94;218119;1297;139149;-57
2021/12/26 08:56:56;;;;;;;58.30;25.70;;;;;;;-4.94;62.12;99027.63;219283;1293;142120;-59
2021/12/26 09:02:04;;;;;;;61.40;27.50;;;;;;;-4.77;62.23;99025.37;219285;1292;139747;-58
2021/12/26 09:07:09;;;;;;;66.30;28.00;;;;;;;-4.66;62.12;99024.33;219067;1293;139926;-60
2021/12/26 09:12:12;;;;;;;67.40;29.40;;;;;;;-4.57;62.18;99024.66;219367;1293;139458;-60
2021/12/26 09:17:19;;;;;;;69.20;29.60;;;;;;;-4.44;62.34;99018.91;218638;1293;140548;-58
2021/12/26 09:22:22;;;;;;;68.20;31.80;;;;;;;-4.23;63.13;99012.98;218809;1293;139498;-62
2021/12/26 09:27:26;;;;;;;63.20;29.40;;;;;;;-3.99;62.90;99005.09;218890;1293;140140;-55
2021/12/26 09:32:28;;;;;;;61.50;27.30;;;;;;;-3.89;62.71;98997.59;218615;1294;139335;-56
2021/12/26 09:37:32;;;;;;;77.30;36.90;;;;;;;-3.70;63.40;98997.48;218694;1293;139224;-58
2021/12/26 09:42:37;;;;;;;59.30;26.90;;;;;;;-3.44;63.20;98994.21;218987;1294;139971;-62
2021/12/26 09:47:41;;;;;;;51.90;23.60;;;;;;;-3.33;62.93;98984.26;218479;1293;139594;-61
2021/12/26 09:52:46;;;;;;;74.90;37.80;;;;;;;-3.17;63.49;98979.12;218473;1293;139201;-61
2021/12/26 09:57:49;;;;;;;48.90;22.30;;;;;;;-2.91;63.40;98975.77;218399;1294;139390;-61
2021/12/26 10:03:17;;;;;;;40.70;19.70;;;;;;;-2.81;62.99;98973.94;218916;1293;139086;-58
2021/12/26 10:08:21;;;;;;;41.60;18.90;;;;;;;-2.70;63.07;98977.48;218997;1293;142394;-63
2021/12/26 10:13:48;;;;;;;44.40;19.70;;;;;;;-2.57;62.99;98978.21;219565;1292;139243;-58
2021/12/26 10:18:53;;;;;;;45.10;20.20;;;;;;;-2.39;63.16;98976.46;218512;1293;139517;-59
2021/12/26 10:24:06;;;;;;;109.00;44.70;;;;;;;-2.17;63.44;98971.86;218518;1293;139385;-60
2021/12/26 10:29:20;;;;;;;54.00;23.90;;;;;;;-1.82;63.35;98967.42;218531;1293;139299;-62
2021/12/26 10:34:30;;;;;;;48.20;20.40;;;;;;;-1.63;62.70;98969.95;218407;1294;139424;-61
2021/12/26 10:39:44;;;;;;;44.30;19.90;;;;;;;-1.52;62.39;98969.09;218473;1296;139225;-59
2021/12/26 10:44:53;;;;;;;40.80;18.70;;;;;;;-1.40;62.26;98965.60;218607;1293;140562;-62
2021/12/26 10:50:01;;;;;;;46.40;21.10;;;;;;;-1.39;61.91;98968.05;219324;1293;140161;-60
2021/12/26 10:55:11;;;;;;;48.80;21.10;;;;;;;-1.52;61.46;98970.83;219645;1292;139455;-60
2021/12/26 11:00:19;;;;;;;42.30;17.90;;;;;;;-1.63;61.36;98968.04;219644;1293;139056;-60
2021/12/26 11:05:25;;;;;;;36.50;17.30;;;;;;;-1.69;61.43;98965.50;219389;1293;139651;-60
2021/12/26 11:10:52;;;;;;;37.30;17.20;;;;;;;-1.72;61.24;98965.90;218936;1293;139318;-58
2021/12/26 11:16:04;;;;;;;39.20;18.50;;;;;;;-1.70;61.33;98962.55;218619;1293;139661;-58
2021/12/26 11:21:13;;;;;;;41.50;18.90;;;;;;;-1.71;61.35;98964.84;218708;1292;139338;-58
2021/12/26 11:26:18;;;;;;;44.50;19.00;;;;;;;-1.73;61.21;98962.79;218791;1293;139376;-60
2021/12/26 11:31:28;;;;;;;45.80;19.60;;;;;;;-1.74;61.13;98962.44;218699;1294;139452;-61
2021/12/26 11:36:32;;;;;;;37.90;17.70;;;;;;;-1.73;61.27;98959.84;218806;1293;140293;-60
2021/12/26 11:42:27;;;;;;;36.10;16.30;;;;;;;-1.71;61.21;98953.02;218867;1293;139179;-58
2021/12/26 11:48:36;;;;;;;29.90;14.00;;;;;;;-1.71;60.99;98951.78;218942;1293;139571;-60
2021/12/26 11:54:30;;;;;;;30.80;13.60;;;;;;;-1.69;60.90;98952.30;219381;1292;139248;-61
2021/12/26 11:59:50;;;;;;;254.20;140.40;;;;;;;-1.67;60.77;98955.73;219230;1292;139254;-59
2021/12/26 12:05:20;;;;;;;115.50;48.40;;;;;;;-1.39;61.89;98953.75;218806;1293;140470;-59
2021/12/26 12:10:48;;;;;;;35.50;17.20;;;;;;;-1.17;61.25;98950.11;219125;1292;139519;-60
2021/12/26 12:15:55;;;;;;;29.90;14.50;;;;;;;-1.18;60.54;98953.09;218746;1293;139848;-60
2021/12/26 12:21:44;;;;;;;31.70;14.10;;;;;;;-1.18;60.38;98952.91;218341;1293;139055;-57
2021/12/26 12:26:52;;;;;;;25.50;11.60;;;;;;;-1.17;60.04;98952.89;218717;1293;139317;-62
2021/12/26 12:32:07;;;;;;;22.40;11.90;;;;;;;-1.21;59.63;98945.64;218879;1293;139871;-57
2021/12/26 12:37:28;;;;;;;21.90;10.90;;;;;;;-1.26;59.57;98943.13;218745;1293;139499;-61
2021/12/26 12:42:32;;;;;;;202.50;104.30;;;;;;;-1.19;59.86;98940.41;219797;1290;141984;-59
2021/12/26 12:47:35;;;;;;;36.30;17.00;;;;;;;-0.84;60.54;98933.69;219229;1290;139413;-61
2021/12/26 12:52:51;;;;;;;24.50;12.40;;;;;;;-0.66;59.77;98929.04;219092;1293;140337;-56
2021/12/26 12:57:56;;;;;;;29.20;13.50;;;;;;;-0.60;59.41;98928.23;218709;1293;139505;-57
2021/12/26 13:03:00;;;;;;;25.50;13.40;;;;;;;-0.65;59.13;98933.38;219341;1293;141624;-64
2021/12/26 13:08:06;;;;;;;28.70;13.80;;;;;;;-0.71;59.09;98930.16;218570;1293;138892;-57
2021/12/26 13:13:16;;;;;;;28.70;13.20;;;;;;;-0.80;58.90;98935.71;218808;1293;139140;-60
2021/12/26 13:18:21;;;;;;;30.20;12.90;;;;;;;-0.87;58.84;98941.25;219274;1293;140180;-59
2021/12/26 13:23:25;;;;;;;30.70;13.60;;;;;;;-0.94;58.76;98940.33;219001;1293;139397;-60
2021/12/26 13:28:30;;;;;;;29.30;13.20;;;;;;;-0.97;58.75;98942.98;219643;1290;142570;-59
2021/12/26 13:33:39;;;;;;;28.00;13.00;;;;;;;-1.04;58.69;98947.10;219608;1293;138887;-57
2021/12/26 13:38:42;;;;;;;28.70;13.60;;;;;;;-1.13;58.66;98952.83;219278;1292;139255;-56
2021/12/26 13:43:46;;;;;;;28.30;13.30;;;;;;;-1.24;58.48;98960.66;219278;1293;140059;-57
2021/12/26 13:48:57;;;;;;;24.60;12.60;;;;;;;-1.31;58.60;98968.44;218882;1290;139505;-56
2021/12/26 13:54:08;;;;;;;25.00;11.70;;;;;;;-1.37;58.46;98975.31;218864;1293;139532;-61
2021/12/26 13:59:31;;;;;;;23.50;11.80;;;;;;;-1.43;58.41;98978.88;219609;1290;139249;-58
2021/12/26 14:04:42;;;;;;;27.50;13.80;;;;;;;-1.53;58.41;98983.91;219791;1290;140614;-59
2021/12/26 14:09:48;;;;;;;25.30;12.80;;;;;;;-1.56;58.42;98986.20;219235;1292;139137;-57
2021/12/26 14:14:51;;;;;;;29.00;13.90;;;;;;;-1.61;58.48;98978.80;218643;1294;140408;-58
2021/12/26 14:19:55;;;;;;;32.70;15.40;;;;;;;-1.68;58.32;98980.28;219401;1292;140800;-55
2021/12/26 14:24:59;;;;;;;32.00;16.40;;;;;;;-1.77;58.44;98983.70;218687;1293;140243;-55
2021/12/26 14:30:04;;;;;;;34.20;16.50;;;;;;;-1.87;58.40;98986.09;219143;1293;139406;-58
2021/12/26 14:35:13;;;;;;;35.80;17.70;;;;;;;-1.97;58.45;98990.92;219956;1292;140079;-57
2021/12/26 14:40:16;;;;;;;36.30;17.00;;;;;;;-2.07;58.52;98988.61;219285;1291;139645;-57
2021/12/26 14:45:19;;;;;;;39.10;18.30;;;;;;;-2.15;58.69;98993.04;219121;1290;139619;-56
2021/12/26 14:50:23;;;;;;;293.80;145.60;;;;;;;-2.08;59.71;98987.75;219048;1290;139692;-57
2021/12/26 14:55:29;;;;;;;58.00;25.90;;;;;;;-1.76;59.85;98983.17;218967;1293;139842;-57
2021/12/26 15:00:31;;;;;;;43.20;20.80;;;;;;;-1.89;58.90;98980.56;219604;1292;139067;-60
2021/12/26 15:05:36;;;;;;;47.30;22.60;;;;;;;-2.11;58.71;98984.99;219314;1290;139545;-59
2021/12/26 15:10:41;;;;;;;188.20;89.50;;;;;;;-2.22;59.26;98989.13;219209;1292;139922;-59
2021/12/26 15:15:50;;;;;;;51.00;24.20;;;;;;;-2.09;59.67;98992.27;219547;1290;140627;-56
2021/12/26 15:20:56;;;;;;;55.30;24.60;;;;;;;-2.17;59.19;98996.02;219324;1292;139369;-58
2021/12/26 15:26:12;;;;;;;54.90;25.40;;;;;;;-2.32;58.94;98999.50;218800;1292;139797;-57
2021/12/26 15:31:20;;;;;;;52.90;23.90;;;;;;;-2.48;59.08;99002.45;218732;1294;139319;-58
2021/12/26 15:36:42;;;;;;;55.50;25.20;;;;;;;-2.62;59.09;98998.24;219202;1288;189349;-59
2021/12/26 15:41:50;;;;;;;54.10;24.90;;;;;;;-2.82;59.02;99000.51;218862;1293;139156;-60
2021/12/26 15:46:54;;;;;;;55.60;25.30;;;;;;;-2.96;59.30;99000.44;219018;1293;139901;-55
2021/12/26 15:51:57;;;;;;;82.40;41.20;;;;;;;-2.92;60.43;98999.02;219905;1293;140445;-59
2021/12/26 15:57:01;;;;;;;53.10;24.90;;;;;;;-2.65;60.40;99002.25;219587;1293;140178;-61
2021/12/26 16:02:04;;;;;;;52.40;25.20;;;;;;;-2.74;59.77;99009.81;219913;1290;139284;-59
2021/12/26 16:07:07;;;;;;;59.00;26.10;;;;;;;-2.88;59.58;99014.97;219420;1293;139993;-57
2021/12/26 16:12:10;;;;;;;63.40;26.80;;;;;;;-2.98;59.83;99018.35;219966;1293;138955;-60
2021/12/26 16:17:13;;;;;;;57.80;26.70;;;;;;;-3.07;59.86;99017.89;219386;1290;140401;-61
2021/12/26 16:22:16;;;;;;;67.50;30.00;;;;;;;-3.14;59.96;99017.59;219359;1293;139191;-60
2021/12/26 16:27:19;;;;;;;69.20;30.20;;;;;;;-3.21;59.88;99025.46;218808;1293;139433;-58
2021/12/26 16:32:22;;;;;;;63.90;29.60;;;;;;;-3.24;60.17;99024.77;218961;1293;140632;-56
2021/12/26 16:37:25;;;;;;;73.10;32.20;;;;;;;-3.26;60.19;99029.84;219493;1294;139432;-57
2021/12/26 16:42:28;;;;;;;85.80;34.40;;;;;;;-3.34;60.12;99033.17;219095;1292;139197;-58
2021/12/26 16:47:31;;;;;;;77.70;33.10;;;;;;;-3.40;60.19;99034.60;218617;1294;140526;-62
2021/12/26 16:52:35;;;;;;;82.00;32.80;;;;;;;-3.43;60.28;99042.95;218691;1293;139393;-59
2021/12/26 16:57:39;;;;;;;82.90;35.70;;;;;;;-3.46;60.35;99038.64;218360;1293;139108;-58
2021/12/26 17:02:42;;;;;;;150.40;54.10;;;;;;;-3.30;61.54;99034.55;218891;1293;139591;-63
2021/12/26 17:07:48;;;;;;;79.00;34.20;;;;;;;-3.10;60.88;99024.86;219397;1292;139473;-56
2021/12/26 17:13:05;;;;;;;77.10;33.10;;;;;;;-3.20;60.41;99021.64;218718;1293;140140;-58
2021/12/26 17:18:09;;;;;;;77.30;33.10;;;;;;;-3.32;60.30;99027.61;219565;1293;139828;-55
2021/12/26 17:23:12;;;;;;;80.00;35.30;;;;;;;-3.41;60.34;99033.91;219171;1293;139423;-58
2021/12/26 17:28:15;;;;;;;75.50;34.10;;;;;;;-3.48;60.30;99039.34;218721;1293;139604;-60
2021/12/26 17:33:18;;;;;;;85.00;36.50;;;;;;;-3.55;60.48;99040.59;219249;1293;139540;-54
2021/12/26 17:38:21;;;;;;;78.70;35.90;;;;;;;-3.62;60.43;99039.92;219851;1292;139762;-59
2021/12/26 17:43:24;;;;;;;83.40;37.00;;;;;;;-3.65;60.59;99048.78;219091;1292;140350;-58
2021/12/26 17:48:27;;;;;;;79.10;35.80;;;;;;;-3.66;60.58;99047.23;218955;1290;140956;-56
2021/12/26 17:53:30;;;;;;;80.70;36.90;;;;;;;-3.71;60.60;99050.72;219296;1293;139444;-60
2021/12/26 17:58:33;;;;;;;85.80;35.90;;;;;;;-3.75;60.70;99044.84;219037;1293;141540;-54
2021/12/26 18:03:40;;;;;;;;;;;;;;;-3.79;60.75;99048.85;219118;1290;139702;-62
2021/12/26 18:08:43;;;;;;;97.40;44.10;;;;;;;-3.69;61.92;99047.07;219497;1290;125615;-61
2021/12/26 18:13:46;;;;;;;82.30;35.90;;;;;;;-3.27;61.92;99043.55;218780;1294;139234;-62
2021/12/26 18:18:49;;;;;;;81.80;34.90;;;;;;;-3.34;60.79;99045.84;219537;1293;139136;-57
2021/12/26 18:23:53;;;;;;;81.40;36.20;;;;;;;-3.51;60.45;99042.98;219277;1290;139090;-58
2021/12/26 18:28:56;;;;;;;76.40;33.80;;;;;;;-3.68;60.31;99049.32;219146;1293;140265;-56
2021/12/26 18:34:01;;;;;;;80.30;35.60;;;;;;;-3.82;60.25;99049.21;218770;1293;140330;-57
2021/12/26 18:39:05;;;;;;;77.20;35.20;;;;;;;-3.92;60.47;99047.86;219259;1291;139435;-57
2021/12/26 18:44:08;;;;;;;77.50;34.80;;;;;;;-3.99;60.50;99046.50;219621;1293;139062;-59
2021/12/26 18:49:11;;;;;;;73.30;33.50;;;;;;;-4.03;60.63;99037.16;219338;1292;139685;-62
2021/12/26 18:54:14;;;;;;;82.70;35.30;;;;;;;-4.06;60.65;99044.27;219527;1292;139719;-59
2021/12/26 18:59:18;;;;;;;78.10;34.60;;;;;;;-4.08;60.61;99044.10;219505;1293;139437;-57
2021/12/26 19:04:22;;;;;;;79.40;35.90;;;;;;;-4.09;60.59;99039.59;218791;1292;139556;-56
2021/12/26 19:09:25;;;;;;;81.70;37.10;;;;;;;-4.13;60.48;99034.08;218680;1294;139793;-59
2021/12/26 19:14:28;;;;;;;94.00;38.40;;;;;;;-4.21;60.44;99036.52;219110;1294;139959;-58
2021/12/26 19:19:32;;;;;;;84.00;37.40;;;;;;;-4.26;60.52;99041.91;218686;1294;140409;-65
2021/12/26 19:24:35;;;;;;;88.30;37.90;;;;;;;-4.30;60.58;99040.19;218601;1293;139908;-59
2021/12/26 19:29:40;;;;;;;80.40;34.10;;;;;;;-4.32;60.52;99040.02;218911;1294;139409;-55
2021/12/26 19:34:46;;;;;;;77.80;34.60;;;;;;;-4.36;60.44;99041.23;219503;1293;139631;-61
2021/12/26 19:39:50;;;;;;;85.60;34.60;;;;;;;-4.40;60.40;99046.27;218211;1297;140328;-58
2021/12/26 19:44:53;;;;;;;165.00;82.40;;;;;;;-4.40;60.53;99047.49;218481;1294;139224;-58
2021/12/26 19:49:56;;;;;;;191.60;80.70;;;;;;;-3.66;64.25;99043.74;219100;1294;139360;-60
2021/12/26 19:54:59;;;;;;;84.70;35.40;;;;;;;-3.16;62.03;99034.44;218831;1294;139811;-62
2021/12/26 20:00:08;;;;;;;83.30;37.80;;;;;;;-3.31;60.43;99032.63;219038;1293;139165;-60
2021/12/26 20:05:11;;;;;;;84.20;37.20;;;;;;;-3.52;60.09;99036.58;219242;1291;140000;-59
2021/12/26 20:10:36;;;;;;;86.90;38.50;;;;;;;-3.72;59.86;99037.73;219099;1292;139202;-58
2021/12/26 20:15:41;;;;;;;92.40;39.60;;;;;;;-3.87;59.99;99045.23;218754;1294;139348;-60
2021/12/26 20:20:48;;;;;;;87.70;38.60;;;;;;;-4.00;59.88;99048.06;219539;1293;139623;-60
2021/12/26 20:25:52;;;;;;;83.20;37.40;;;;;;;-4.12;59.69;99051.39;218489;1296;139389;-59
2021/12/26 20:30:56;;;;;;;77.20;35.60;;;;;;;-4.20;60.00;99048.48;218369;1294;140670;-57
2021/12/26 20:35:59;;;;;;;73.00;33.00;;;;;;;-4.30;59.77;99046.59;218219;1294;139292;-61
2021/12/26 20:41:05;;;;;;;72.40;30.20;;;;;;;-4.38;59.91;99039.68;219140;1291;139414;-59
2021/12/26 20:46:08;;;;;;;74.90;31.00;;;;;;;-4.42;59.91;99038.14;218898;1292;139572;-59
2021/12/26 20:51:12;;;;;;;80.70;34.10;;;;;;;-4.45;59.92;99036.23;218946;1292;139646;-60
2021/12/26 20:56:17;;;;;;;78.00;34.30;;;;;;;-4.51;59.88;99031.92;219619;1290;139933;-60
2021/12/26 21:01:20;;;;;;;88.30;38.20;;;;;;;-4.57;59.91;99028.64;219305;1292;139169;-61
2021/12/26 21:06:24;;;;;;;83.10;37.30;;;;;;;-4.62;59.89;99028.65;219199;1293;139282;-56
2021/12/26 21:11:27;;;;;;;96.10;39.20;;;;;;;-4.66;59.97;99037.30;218883;1293;140842;-57
2021/12/26 21:16:30;;;;;;;96.20;38.80;;;;;;;-4.72;60.05;99036.45;218760;1293;140218;-57
2021/12/26 21:21:34;;;;;;;89.40;39.50;;;;;;;-4.74;60.25;99041.47;218867;1293;139881;-59
2021/12/26 21:26:36;;;;;;;88.20;38.90;;;;;;;-4.77;60.09;99031.08;219126;1294;139241;-60
2021/12/26 21:31:39;;;;;;;93.90;39.60;;;;;;;-4.81;60.26;99034.55;219009;1294;140402;-60
2021/12/26 21:36:42;;;;;;;86.40;37.80;;;;;;;-4.81;60.45;99033.52;219098;1292;139298;-58
2021/12/26 21:41:45;;;;;;;91.10;38.70;;;;;;;-4.82;60.50;99033.86;218503;1293;139602;-58
2021/12/26 21:46:50;;;;;;;89.80;37.00;;;;;;;-4.82;60.42;99034.73;218782;1293;139870;-61
2021/12/26 21:51:53;;;;;;;89.50;37.50;;;;;;;-4.82;60.41;99025.73;218517;1293;139609;-60
2021/12/26 21:57:02;;;;;;;88.60;37.50;;;;;;;-4.81;60.45;99030.06;218281;1294;140088;-58
2021/12/26 22:02:08;;;;;;;84.70;37.10;;;;;;;-4.81;60.43;99029.70;218999;1293;139589;-59
2021/12/26 22:07:12;;;;;;;89.40;37.00;;;;;;;-4.83;60.40;99023.83;219435;1294;139425;-55
2021/12/26 22:12:15;;;;;;;86.30;36.60;;;;;;;-4.83;60.30;99032.82;218792;1293;139331;-59
2021/12/26 22:17:19;;;;;;;92.60;41.10;;;;;;;-4.84;60.43;99036.45;219294;1294;139207;-55
2021/12/26 22:22:25;;;;;;;89.80;41.10;;;;;;;-4.89;60.43;99040.77;218578;1293;139376;-58
2021/12/26 22:27:30;;;;;;;98.20;42.00;;;;;;;-4.89;60.62;99037.83;219261;1290;139663;-58
2021/12/26 22:32:33;;;;;;;100.10;41.80;;;;;;;-4.85;60.50;99033.86;219642;1290;139195;-58
2021/12/26 22:37:36;;;;;;;93.10;41.10;;;;;;;-4.87;60.49;99034.20;218856;1293;140062;-61
2021/12/26 22:42:40;;;;;;;103.70;43.20;;;;;;;-4.86;60.67;99026.41;219576;1293;138946;-56
2021/12/26 22:47:44;;;;;;;104.30;45.00;;;;;;;-4.88;60.61;99020.02;218868;1293;139656;-59
2021/12/26 22:52:47;;;;;;;104.40;44.40;;;;;;;-4.90;60.58;99011.88;218510;1296;139789;-59
2021/12/26 22:57:50;;;;;;;103.20;45.70;;;;;;;-4.95;60.61;99009.30;219002;1293;140078;-58
2021/12/26 23:02:53;;;;;;;104.40;45.40;;;;;;;-5.02;60.45;99009.98;218652;1293;140048;-58